• Join FlightAware (Why Join?)
  • Login
  • US Flag 
03:13AM EDT


 

Airport Tracker/Info


-or-


 

Live Flight TrackerFlight Track Log ✈ SKW6446 ✈ 30-Apr-2013 ✈ KDEN - KTUS

Flight Track Log - Related Links

Times and Time Zones

All times are in EDT time to prevent confusion due to time zone crossing. See the SKW6446 flight status page for this flight to view local times or setup timezone preferences in your user account.

Time Position Orientation Groundspeed Altitude Reporting Facility
EDT Latitude Longitude Course Direction KTS MPH feet Rate Location/Type
02:45PM 39.8667 -104.5667 201° Southwest 185 213 7,400  Level Denver TRACON
02:46PM 39.8000 -104.5667 180° South 223 257 9,400 1,800 Climbing Denver TRACON
02:47PM 39.5643 -104.9440 199° South  Level Estimated
02:47PM 39.7589 -104.5797 194° South 226 260 10,700  Level Denver Center
02:48PM 39.4651 -105.0338 201° Southwest  Level Estimated
02:48PM 39.6719 -104.5994 190° South 292 336 11,800  Level Denver Center
02:49PM 39.3658 -105.1233 199° South  Level Estimated
02:49PM 39.5847 -104.6183 189° South 313 360 14,100  Level Denver Center
02:50PM 39.2664 -105.2126 201° Southwest  Level Estimated
02:50PM 39.4944 -104.6381 190° South 326 375 16,200  Level Denver Center
02:51PM 39.3925 -104.6606 190° South 343 395 18,700 1,980 Climbing Denver Center
02:52PM 39.2975 -104.6864 192° South 347 399 20,400 1,860 Climbing Denver Center
02:53PM 39.2056 -104.7536 210° Southwest 353 406 22,600 2,160 Climbing Denver Center
02:54PM 39.1294 -104.8081 209° Southwest 335 386 24,900 1,800 Climbing Denver Center
02:55PM 39.0428 -104.8703 209° Southwest 325 374 26,400 1,200 Climbing Denver Center
02:56PM 38.9642 -104.9250 208° Southwest 336 387 27,400 840 Climbing Denver Center
02:57PM 38.8819 -104.9842 209° Southwest 353 406 28,300 960 Climbing Denver Center
02:58PM 38.7714 -105.0628 209° Southwest 350 403 29,700 1,140 Climbing Denver Center
02:59PM 38.6731 -105.1308 208° Southwest 366 421 30,700 720 Climbing Denver Center
03:00PM 38.5825 -105.1944 209° Southwest 373 429 31,200 600 Climbing Denver Center
03:01PM 38.4736 -105.2706 209° Southwest 388 447 32,000 780 Climbing Denver Center
03:02PM 38.3783 -105.3383 209° Southwest 401 461 32,900 900 Climbing Denver Center
03:03PM 38.2831 -105.4056 209° Southwest 407 468 33,900 1,020 Climbing Denver Center
03:04PM 38.1747 -105.4811 209° Southwest 402 463 35,000 720 Climbing Denver Center
03:05PM 38.0828 -105.5456 209° Southwest 395 455 35,500 480 Climbing Denver Center
03:06PM 37.9744 -105.6217 209° Southwest 398 458 36,000 480 Climbing Denver Center
03:07PM 37.8797 -105.6861 208° Southwest 403 464 36,500 480 Climbing Denver Center
03:08PM 37.7689 -105.7639 209° Southwest 407 468 37,100 480 Climbing Denver Center
03:10PM 37.6881 -105.8178 208° Southwest 411 473 37,500 420 Climbing Denver Center
03:11PM 37.5586 -105.9067 209° Southwest 414 476 38,000 240 Climbing Denver Center
03:12PM 37.4547 -105.9772 208° Southwest 427 491 38,000  Level Denver Center
03:13PM 37.3544 -106.0469 209° Southwest 428 493 38,000  Level Denver Center
03:14PM 37.2367 -106.1261 208° Southwest 429 494 38,000  Level Denver Center
03:15PM 37.1367 -106.1950 209° Southwest 427 491 38,000  Level Denver Center
03:16PM 37.0372 -106.2617 208° Southwest 424 488 38,000  Level Denver Center
03:17PM 36.9211 -106.3386 208° Southwest 422 486 38,000  Level Denver Center
03:18PM 36.8236 -106.4058 209° Southwest 419 482 38,000  Level Denver Center
03:19PM 36.7144 -106.4761 207° Southwest 422 486 38,000  Level Denver Center
03:20PM 36.6067 -106.5494 209° Southwest 422 486 38,000  Level Albuquerque Center
03:21PM 36.4919 -106.6258 208° Southwest 421 484 38,000  Level Denver Center
03:22PM 36.3925 -106.6908 208° Southwest 419 482 38,000  Level Denver Center
03:23PM 36.2917 -106.7586 208° Southwest 424 488 38,000  Level Albuquerque Center
03:24PM 36.1742 -106.8361 208° Southwest 428 493 38,000  Level Albuquerque Center
03:25PM 36.0656 -106.9069 208° Southwest 438 504 38,000  Level Albuquerque Center
03:26PM 35.9575 -106.9775 208° Southwest 440 506 38,000  Level Albuquerque Center
03:27PM 35.8414 -107.0531 208° Southwest 447 514 38,000  Level Albuquerque Center
03:28PM 35.7178 -107.1333 208° Southwest 447 514 38,000  Level Albuquerque Center
03:29PM 35.6111 -107.2022 208° Southwest 449 517 38,000  Level Albuquerque Center
03:30PM 35.5036 -107.2714 208° Southwest 452 520 38,000  Level Albuquerque Center
03:31PM 35.3772 -107.3525 208° Southwest 455 524 38,000  Level Albuquerque Center
03:32PM 35.2678 -107.4233 208° Southwest 461 531 38,000  Level Albuquerque Center
03:33PM 35.1558 -107.4950 208° Southwest 460 529 38,000  Level Albuquerque Center
03:34PM 35.0425 -107.5675 208° Southwest 461 531 38,000  Level Albuquerque Center
03:35PM 34.9292 -107.6386 207° Southwest 461 531 38,000  Level Albuquerque Center
03:36PM 34.7933 -107.7258 208° Southwest 461 531 38,000  Level Albuquerque Center
03:37PM 34.6811 -107.7969 208° Southwest 458 527 38,000  Level Albuquerque Center
03:38PM 34.5675 -107.8672 207° Southwest 458 527 38,000  Level Albuquerque Center
03:39PM 34.4547 -107.9383 207° Southwest 458 527 38,000  Level Albuquerque Center
03:40PM 34.3411 -108.0094 207° Southwest 459 528 38,000  Level Albuquerque Center
03:41PM 34.2292 -108.0756 206° Southwest 459 528 38,000  Level Albuquerque Center
03:42PM 34.0936 -108.1592 207° Southwest 458 527 38,000  Level Albuquerque Center
03:43PM 33.9817 -108.2294 208° Southwest 456 525 38,000  Level Albuquerque Center
03:44PM 33.8683 -108.2986 207° Southwest 458 527 38,000 -60 Level Albuquerque Center
03:45PM 33.7542 -108.3667 206° Southwest 461 531 37,900 -600 Descending Albuquerque Center
03:46PM 33.6428 -108.4361 207° Southwest 457 526 36,800 -1,080 Descending Albuquerque Center
03:48PM 33.5361 -108.5003 207° Southwest 441 507 35,700 -1,200 Descending Albuquerque Center
03:49PM 33.4125 -108.5761 207° Southwest 422 486 34,400 -840 Descending Albuquerque Center
03:50PM 33.3061 -108.6419 207° Southwest 428 493 34,000 -240 Descending Albuquerque Center
03:51PM 33.1933 -108.7092 207° Southwest 444 511 34,000 -720 Level Albuquerque Center
03:52PM 33.0753 -108.7808 207° Southwest 457 526 32,600 -1,380 Descending Albuquerque Center
03:53PM 32.9661 -108.8475 207° Southwest 449 517 31,200 -1,380 Descending Albuquerque Center
03:54PM 32.8517 -108.9142 206° Southwest 452 520 29,800 -1,380 Descending Albuquerque Center
03:55PM 32.7436 -108.9800 207° Southwest 449 517 28,400 -1,080 Descending Albuquerque Center
03:56PM 32.6308 -109.0475 207° Southwest 445 512 27,600 -1,020 Descending Albuquerque Center
03:57PM 32.5075 -109.1200 206° Southwest 420 483 26,400 -1,080 Descending Albuquerque Center
03:58PM 32.4089 -109.1781 206° Southwest 404 465 25,400 -1,020 Descending Albuquerque Center
03:59PM 32.3106 -109.2361 207° Southwest 399 459 24,400 -720 Descending Albuquerque Center
04:00PM 32.2600 -109.3436 241° Southwest 394 453 24,000 -540 Descending Albuquerque Center
04:01PM 32.2472 -109.4753 263° West 400 460 23,300 -720 Descending Albuquerque Center
04:02PM 32.2336 -109.6094 263° West 407 468 22,600 -1,560 Descending Albuquerque Center
04:03PM 32.2175 -109.7719 263° West 412 474 20,100 -1,980 Descending Albuquerque Center
04:04PM 32.2036 -109.9086 263° West 417 480 18,600 -1,560 Descending Albuquerque Center
04:05PM 32.1908 -110.0389 263° West 412 474 17,000 -1,500 Descending Albuquerque Center
04:06PM 32.1783 -110.1653 263° West 399 459 15,500 -1,500 Descending Albuquerque Center
04:07PM 32.1625 -110.2836 261° West 336 387 14,000 -1,800 Descending Albuquerque Center
04:08PM 32.1422 -110.3850 257° West 316 364 11,900 -1,980 Descending Albuquerque Center
04:09PM 32.1217 -110.4903 257° West 315 362 10,000 -960 Descending Albuquerque Center
04:10PM 32.1019 -110.5722 254° West 284 327 10,000 -960 Level Albuquerque Center
04:11PM 32.0750 -110.6506 248° West 221 254 8,000 -1,740 Descending Albuquerque Center
04:12PM 32.0558 -110.7161 251° West 210 242 6,300 -1,440 Descending Albuquerque Center
04:13PM 32.0506 -110.7756 264° West 200 230 5,300 -1,140 Descending Albuquerque Center